Time;durP1;ratioP1;P1;durP2;ratioP2;P2;SDS_P1;SDS_P2;PMS_P1;PMS_P2;Temp;Humidity;BMP_temperature;BMP_pressure;BME280_temperature;BME280_humidity;BME280_pressure;Samples;Min_cycle;Max_cycle;Signal;HPM_P1;HPM_P2
2023/03/27 00:00:52;;;;;;;63.60;29.60;;;;;;;8.10;78.72;97584.02;108404;1303;22974;-43
2023/03/27 00:03:19;;;;;;;52.30;28.80;;;;;;;8.09;78.95;97585.64;108379;1303;23426;-44
2023/03/27 00:05:45;;;;;;;58.40;29.70;;;;;;;8.09;78.85;97586.52;108383;1303;22498;-44
2023/03/27 00:08:11;;;;;;;60.90;31.60;;;;;;;8.10;78.93;97588.88;108398;1303;22429;-44
2023/03/27 00:10:37;;;;;;;47.70;25.60;;;;;;;8.10;78.29;97582.23;108386;1303;22417;-43
2023/03/27 00:13:04;;;;;;;50.80;25.60;;;;;;;8.08;78.05;97577.52;108388;1303;22401;-44
2023/03/27 00:15:30;;;;;;;48.10;24.10;;;;;;;8.08;78.03;97578.52;108391;1303;22224;-42
2023/03/27 00:17:58;;;;;;;46.90;24.10;;;;;;;8.08;77.67;97580.14;108214;1303;22221;-42
2023/03/27 00:20:25;;;;;;;48.80;24.20;;;;;;;8.01;77.56;97581.30;108403;1303;22420;-44
2023/03/27 00:22:55;;;;;;;38.70;21.00;;;;;;;7.97;77.57;97579.70;108412;1303;22303;-45
2023/03/27 00:25:34;;;;;;;38.20;19.00;;;;;;;7.97;77.34;97577.60;108387;1303;22242;-44
2023/03/27 00:27:59;;;;;;;38.00;20.00;;;;;;;7.93;77.41;97571.94;108392;1303;22279;-44
2023/03/27 00:30:27;;;;;;;36.60;21.70;;;;;;;7.93;77.92;97573.75;108411;1303;22272;-44
2023/03/27 00:32:54;;;;;;;41.80;22.90;;;;;;;7.95;78.69;97575.48;108288;1302;22987;-43
2023/03/27 00:35:20;;;;;;;46.40;23.40;;;;;;;7.98;78.31;97572.96;108201;1305;22415;-45
2023/03/27 00:37:46;;;;;;;50.00;25.20;;;;;;;8.01;78.04;97569.27;108220;1305;23123;-46
2023/03/27 00:40:17;;;;;;;52.50;26.90;;;;;;;8.03;78.05;97563.36;108197;1305;22476;-43
2023/03/27 00:42:44;;;;;;;55.60;27.40;;;;;;;8.02;78.52;97559.27;108208;1305;22248;-44
2023/03/27 00:45:30;;;;;;;51.10;28.40;;;;;;;7.98;78.50;97558.66;108209;1305;22252;-44
2023/03/27 00:48:03;;;;;;;65.70;31.10;;;;;;;7.97;78.74;97559.83;108229;1304;22381;-44
2023/03/27 00:50:33;;;;;;;68.30;33.50;;;;;;;7.94;79.23;97563.17;108201;1305;22296;-43
2023/03/27 00:53:25;;;;;;;75.60;35.30;;;;;;;7.87;79.70;97557.71;108187;1305;22435;-43
2023/03/27 00:55:55;;;;;;;68.50;34.00;;;;;;;7.81;79.72;97562.86;108190;1305;23241;-45
2023/03/27 00:58:38;;;;;;;72.40;34.40;;;;;;;7.77;80.19;97564.54;108208;1305;22271;-44
2023/03/27 01:01:03;;;;;;;67.10;34.00;;;;;;;7.74;79.94;97566.20;108186;1305;23143;-45
2023/03/27 01:03:32;;;;;;;70.60;35.50;;;;;;;7.73;79.69;97569.73;108214;1305;22388;-42
2023/03/27 01:06:00;;;;;;;73.80;35.80;;;;;;;7.72;79.63;97572.08;108204;1305;22544;-43
2023/03/27 01:08:29;;;;;;;69.40;34.80;;;;;;;7.69;80.32;97580.47;108211;1305;22288;-46
2023/03/27 01:11:00;;;;;;;70.70;35.30;;;;;;;7.66;80.71;97577.51;108194;1305;22506;-43
2023/03/27 01:14:11;;;;;;;69.50;33.30;;;;;;;7.65;80.34;97581.42;108200;1305;22257;-45
2023/03/27 01:16:51;;;;;;;76.10;35.90;;;;;;;7.63;80.57;97578.77;107476;1310;22501;-45
2023/03/27 01:19:27;;;;;;;74.60;34.80;;;;;;;7.61;80.65;97577.56;107457;1311;22273;-45
2023/03/27 01:22:14;;;;;;;75.70;34.20;;;;;;;7.59;80.76;97579.07;107476;1310;22279;-45
2023/03/27 01:25:02;;;;;;;65.30;32.00;;;;;;;7.58;81.07;97579.64;107459;1311;22290;-44
2023/03/27 01:27:39;;;;;;;62.50;28.70;;;;;;;7.55;80.35;97579.37;107481;1310;22279;-45
2023/03/27 01:30:10;;;;;;;48.70;25.60;;;;;;;7.54;79.63;97578.56;107472;1311;22272;-45
2023/03/27 01:33:00;;;;;;;50.00;26.40;;;;;;;7.54;79.35;97575.79;107480;1310;22332;-45
2023/03/27 01:35:43;;;;;;;45.40;23.20;;;;;;;7.46;79.47;97579.08;107478;1311;22441;-43
2023/03/27 01:38:37;;;;;;;54.40;26.10;;;;;;;7.44;79.85;97574.92;107469;1311;23135;-43
2023/03/27 01:41:13;;;;;;;54.70;29.20;;;;;;;7.46;80.54;97575.27;107475;1311;22484;-46
2023/03/27 01:43:59;;;;;;;52.30;27.90;;;;;;;7.50;80.18;97570.63;107477;1311;22315;-44
2023/03/27 01:46:31;;;;;;;48.00;24.40;;;;;;;7.52;80.12;97572.93;107471;1311;22301;-43
2023/03/27 01:49:07;;;;;;;35.30;20.50;;;;;;;7.53;79.76;97567.67;107467;1311;22282;-44
2023/03/27 01:51:38;;;;;;;39.40;18.70;;;;;;;7.52;79.08;97567.38;107587;1305;23022;-42
2023/03/27 01:54:23;;;;;;;34.20;16.90;;;;;;;7.43;78.77;97560.48;108056;1305;22319;-44
2023/03/27 01:56:54;;;;;;;31.00;16.70;;;;;;;7.35;78.81;97560.54;108208;1305;22238;-43
2023/03/27 01:59:26;;;;;;;32.80;16.50;;;;;;;7.35;79.05;97564.06;108174;1305;22320;-42
2023/03/27 02:02:01;;;;;;;33.00;16.30;;;;;;;7.35;79.01;97566.96;108192;1305;22573;-46
2023/03/27 02:04:36;;;;;;;30.50;13.90;;;;;;;7.36;78.71;97568.14;108294;1304;22417;-43
2023/03/27 02:07:06;;;;;;;22.30;12.50;;;;;;;7.31;78.17;97572.85;108348;1304;22262;-41
2023/03/27 02:09:37;;;;;;;26.70;12.30;;;;;;;7.17;78.20;97571.39;108350;1304;22900;-44
2023/03/27 02:12:10;;;;;;;19.80;11.20;;;;;;;7.14;78.58;97566.16;108323;1304;22242;-44
2023/03/27 02:14:40;;;;;;;23.20;13.20;;;;;;;7.13;78.35;97561.37;108329;1304;22248;-43
2023/03/27 02:17:12;;;;;;;26.10;12.90;;;;;;;7.04;78.96;97560.42;108327;1304;22486;-45
2023/03/27 02:20:15;;;;;;;25.70;13.10;;;;;;;6.98;79.01;97564.48;108320;1304;22504;-42
2023/03/27 02:22:41;;;;;;;22.20;12.70;;;;;;;6.81;79.05;97562.63;108338;1304;22469;-43
2023/03/27 02:25:26;;;;;;;25.70;12.60;;;;;;;6.71;78.84;97561.96;108343;1304;22406;-43
2023/03/27 02:28:01;;;;;;;26.30;13.00;;;;;;;6.59;79.48;97556.27;108344;1304;22464;-42
2023/03/27 02:30:47;;;;;;;21.00;11.20;;;;;;;6.45;79.90;97555.79;108330;1304;22923;-43
2023/03/27 02:33:26;;;;;;;22.80;12.00;;;;;;;6.31;80.59;97551.54;108334;1304;22351;-43
2023/03/27 02:36:32;;;;;;;28.70;12.50;;;;;;;6.16;81.35;97552.02;108341;1304;23730;-42
2023/03/27 02:39:09;;;;;;;21.20;11.80;;;;;;;6.06;81.66;97556.11;108198;1304;22344;-43
2023/03/27 02:41:46;;;;;;;26.90;12.60;;;;;;;5.99;82.15;97554.66;108321;1304;22391;-42
2023/03/27 02:44:24;;;;;;;22.10;12.60;;;;;;;5.82;82.72;97559.49;108331;1304;22317;-43
2023/03/27 02:46:52;;;;;;;22.10;11.10;;;;;;;5.79;82.43;97559.18;108328;1304;22393;-43
2023/03/27 02:49:20;;;;;;;;;;;;;;;5.53;83.70;97563.58;108349;1304;22462;-43
2023/03/27 02:51:55;;;;;;;25.10;12.50;;;;;;;5.39;85.15;97564.46;108331;1304;22440;-44
2023/03/27 02:56:50;;;;;;;22.50;11.80;;;;;;;5.50;84.75;97558.71;106992;1307;559304;-42
2023/03/27 02:59:21;;;;;;;;;;;;;;;5.53;84.63;97563.27;107276;1313;22493;-45
2023/03/27 03:01:47;;;;;;;19.00;10.80;;;;;;;5.45;85.47;97562.90;107262;1313;23260;-45
2023/03/27 03:04:21;;;;;;;25.80;12.40;;;;;;;5.44;85.60;97563.14;107266;1313;22272;-43
2023/03/27 03:06:48;;;;;;;19.10;11.90;;;;;;;5.50;84.67;97569.16;107288;1313;22540;-43
2023/03/27 03:09:17;;;;;;;25.40;12.40;;;;;;;5.57;84.69;97567.38;107166;1311;190312;-44
2023/03/27 03:11:50;;;;;;;26.80;12.10;;;;;;;5.49;84.50;97567.66;107440;1311;22218;-43
2023/03/27 03:14:19;;;;;;;20.80;11.40;;;;;;;5.33;85.78;97570.55;107687;1303;22621;-44
2023/03/27 03:16:45;;;;;;;21.40;11.50;;;;;;;5.25;86.04;97574.33;107660;1309;23010;-46
2023/03/27 03:19:10;;;;;;;25.20;12.20;;;;;;;5.04;87.43;97581.54;107686;1309;22341;-43
2023/03/27 03:21:36;;;;;;;18.70;11.00;;;;;;;4.94;87.40;97584.23;107666;1309;22289;-43
2023/03/27 03:24:01;;;;;;;23.90;11.50;;;;;;;4.83;88.67;97582.09;107653;1309;22245;-44
2023/03/27 03:26:28;;;;;;;16.40;10.10;;;;;;;4.86;87.81;97586.95;107515;1309;22462;-43
2023/03/27 03:28:56;;;;;;;22.00;10.30;;;;;;;4.73;88.98;97591.53;107676;1309;22401;-43
2023/03/27 03:31:22;;;;;;;22.00;10.50;;;;;;;4.68;89.51;97589.91;107677;1309;23041;-42
2023/03/27 03:33:48;;;;;;;20.80;10.00;;;;;;;4.67;89.50;97591.90;107681;1309;22274;-42
2023/03/27 03:36:13;;;;;;;28.80;9.10;;;;;;;4.62;89.10;97598.09;107671;1309;22196;-42
2023/03/27 03:38:40;;;;;;;20.00;8.70;;;;;;;4.51;89.32;97600.13;107664;1309;22486;-45
2023/03/27 03:41:05;;;;;;;15.10;8.00;;;;;;;4.36;89.87;97602.35;107713;1309;22339;-43
2023/03/27 03:43:31;;;;;;;19.10;8.40;;;;;;;4.27;90.18;97604.05;107688;1308;22348;-43
2023/03/27 03:45:56;;;;;;;19.80;9.00;;;;;;;4.19;90.52;97610.41;107668;1309;23049;-43
2023/03/27 03:48:22;;;;;;;20.70;8.50;;;;;;;4.17;90.49;97612.63;107692;1309;22313;-44
2023/03/27 03:50:48;;;;;;;17.30;8.00;;;;;;;4.10;90.83;97616.46;107674;1309;22257;-43
2023/03/27 03:53:15;;;;;;;21.40;9.30;;;;;;;4.14;90.17;97614.84;107702;1309;22617;-44
2023/03/27 03:55:41;;;;;;;18.60;8.30;;;;;;;4.13;90.31;97618.87;107677;1309;23196;-42
2023/03/27 03:58:07;;;;;;;18.80;8.50;;;;;;;4.11;90.27;97623.35;107682;1309;22238;-44
2023/03/27 04:00:36;;;;;;;20.90;8.50;;;;;;;4.03;90.57;97625.54;107684;1309;22867;-44
2023/03/27 04:03:03;;;;;;;17.60;8.60;;;;;;;4.05;90.33;97619.54;107690;1309;22190;-43
2023/03/27 04:05:30;;;;;;;14.90;8.10;;;;;;;3.94;90.70;97620.63;107682;1309;23215;-44
2023/03/27 04:07:58;;;;;;;15.10;7.80;;;;;;;3.95;90.42;97622.18;107680;1309;22664;-43
2023/03/27 04:10:23;;;;;;;;;;;;;;;3.96;90.38;97624.38;107712;1309;22452;-44
2023/03/27 04:12:49;;;;;;;21.00;8.20;;;;;;;3.90;90.14;97630.36;107664;1309;22259;-43
2023/03/27 04:15:15;;;;;;;16.60;8.20;;;;;;;3.91;90.53;97628.98;107690;1309;22220;-42
2023/03/27 04:17:41;;;;;;;14.40;7.50;;;;;;;3.82;90.51;97629.97;107676;1309;22632;-42
2023/03/27 04:20:06;;;;;;;19.20;8.60;;;;;;;3.75;91.23;97626.75;107689;1309;22541;-42
2023/03/27 04:22:36;;;;;;;19.20;9.40;;;;;;;3.85;90.27;97631.20;107673;1309;22475;-42
2023/03/27 04:25:07;;;;;;;15.50;8.00;;;;;;;3.85;90.52;97637.08;107709;1309;22255;-43
2023/03/27 04:27:34;;;;;;;18.70;8.10;;;;;;;3.85;90.55;97636.55;107673;1309;22300;-43
2023/03/27 04:30:01;;;;;;;;;;;;;;;3.89;89.91;97643.16;107663;1309;22495;-44
2023/03/27 04:32:26;;;;;;;18.70;8.30;;;;;;;3.86;89.98;97650.41;107686;1309;23098;-43
2023/03/27 04:34:53;;;;;;;19.70;8.50;;;;;;;3.81;89.91;97654.98;107673;1309;22421;-43
2023/03/27 04:37:19;;;;;;;17.40;7.90;;;;;;;3.68;91.17;97654.67;107672;1309;23341;-43
2023/03/27 04:39:45;;;;;;;19.40;8.50;;;;;;;3.73;90.94;97660.60;107679;1309;22225;-46
2023/03/27 04:42:11;;;;;;;21.50;8.70;;;;;;;3.79;90.91;97666.69;107670;1309;23292;-44
2023/03/27 04:44:36;;;;;;;18.80;8.50;;;;;;;3.88;90.02;97673.53;107642;1309;22241;-43
2023/03/27 04:47:03;;;;;;;20.80;8.00;;;;;;;3.83;90.20;97677.90;107637;1309;22964;-43
2023/03/27 04:49:29;;;;;;;22.80;9.30;;;;;;;3.91;89.71;97682.89;107645;1309;22934;-43
2023/03/27 04:51:54;;;;;;;19.40;8.40;;;;;;;3.96;89.12;97680.89;107676;1309;22294;-43
2023/03/27 04:54:21;;;;;;;15.70;8.50;;;;;;;3.88;89.46;97681.50;107666;1309;23080;-42
2023/03/27 04:56:47;;;;;;;19.70;9.20;;;;;;;3.84;89.87;97681.36;107662;1309;22245;-46
2023/03/27 04:59:14;;;;;;;20.90;9.60;;;;;;;3.85;89.57;97682.71;107647;1309;22244;-43
2023/03/27 05:01:40;;;;;;;21.60;9.30;;;;;;;3.87;88.81;97679.61;107650;1309;22331;-44
2023/03/27 05:04:05;;;;;;;19.30;8.30;;;;;;;3.85;88.29;97683.51;107667;1309;23256;-42
2023/03/27 05:06:31;;;;;;;25.30;8.60;;;;;;;3.81;88.15;97686.54;107628;1309;22481;-43
2023/03/27 05:08:57;;;;;;;15.90;6.90;;;;;;;3.76;87.74;97677.95;107660;1309;22466;-42
2023/03/27 05:11:22;;;;;;;21.00;6.70;;;;;;;3.77;86.89;97678.57;107648;1309;22935;-43
2023/03/27 05:13:48;;;;;;;29.10;8.90;;;;;;;3.76;85.63;97673.31;107643;1309;22223;-43
2023/03/27 05:16:13;;;;;;;24.90;8.70;;;;;;;3.85;85.41;97677.66;107621;1309;23454;-43
2023/03/27 05:18:40;;;;;;;19.50;6.60;;;;;;;3.82;84.70;97676.76;107635;1309;24216;-42
2023/03/27 05:21:06;;;;;;;12.40;5.10;;;;;;;3.79;83.56;97678.52;107660;1309;22272;-43
2023/03/27 05:23:31;;;;;;;19.40;6.60;;;;;;;3.78;83.31;97678.54;107628;1309;22350;-43
2023/03/27 05:25:57;;;;;;;17.70;6.40;;;;;;;3.73;82.98;97677.09;107639;1309;22232;-42
2023/03/27 05:28:22;;;;;;;15.10;6.30;;;;;;;3.77;82.99;97676.51;107646;1309;23032;-44
2023/03/27 05:30:48;;;;;;;15.20;6.00;;;;;;;3.80;82.88;97671.83;107638;1309;22418;-42
2023/03/27 05:33:15;;;;;;;17.10;6.70;;;;;;;3.78;82.63;97673.66;107627;1309;22486;-43
2023/03/27 05:35:41;;;;;;;19.00;6.80;;;;;;;3.69;82.68;97674.70;107642;1309;22448;-43
2023/03/27 05:38:08;;;;;;;18.80;6.70;;;;;;;3.64;82.74;97679.29;107639;1309;22498;-44
2023/03/27 05:40:33;;;;;;;18.30;6.70;;;;;;;3.69;82.75;97688.02;107670;1309;23232;-44
2023/03/27 05:42:59;;;;;;;18.00;5.90;;;;;;;3.74;82.61;97696.77;107603;1309;22903;-43
2023/03/27 05:45:25;;;;;;;18.00;5.90;;;;;;;3.70;82.77;97700.30;107642;1309;22350;-43
2023/03/27 05:47:56;;;;;;;23.80;6.90;;;;;;;3.72;82.68;97699.68;107642;1309;22402;-43
2023/03/27 05:50:25;;;;;;;16.20;5.90;;;;;;;3.67;82.92;97711.70;107657;1309;23124;-42
2023/03/27 05:53:02;;;;;;;15.70;5.90;;;;;;;3.68;82.88;97709.95;107647;1309;22231;-43
2023/03/27 05:55:27;;;;;;;23.00;6.30;;;;;;;3.59;82.92;97714.91;107646;1309;22395;-42
2023/03/27 05:57:53;;;;;;;10.60;4.90;;;;;;;3.60;83.05;97719.04;107637;1309;22236;-44
2023/03/27 06:00:24;;;;;;;18.80;6.10;;;;;;;3.37;83.60;97718.45;107664;1309;22529;-45
2023/03/27 06:02:52;;;;;;;14.80;5.80;;;;;;;3.33;84.15;97722.50;107644;1309;22291;-43
2023/03/27 06:05:18;;;;;;;16.80;6.60;;;;;;;3.41;84.15;97723.30;107629;1309;22420;-43
2023/03/27 06:07:44;;;;;;;18.40;6.30;;;;;;;3.43;84.00;97730.63;107648;1309;22133;-44
2023/03/27 06:10:13;;;;;;;13.70;5.70;;;;;;;3.39;84.47;97735.00;107628;1309;22542;-43
2023/03/27 06:12:38;;;;;;;14.50;5.50;;;;;;;3.33;84.70;97737.54;107626;1309;22268;-43
2023/03/27 06:15:06;;;;;;;19.50;6.50;;;;;;;3.30;85.12;97742.71;107384;1309;22984;-42
2023/03/27 06:17:32;;;;;;;19.20;6.00;;;;;;;3.31;85.08;97746.52;107639;1309;22235;-43
2023/03/27 06:20:00;;;;;;;20.30;7.00;;;;;;;3.35;85.16;97752.34;107655;1309;22239;-44
2023/03/27 06:22:26;;;;;;;16.50;6.40;;;;;;;3.29;85.42;97764.59;107695;1309;23017;-44
2023/03/27 06:24:54;;;;;;;16.70;5.60;;;;;;;3.30;85.19;97761.27;107627;1309;23160;-42
2023/03/27 06:27:20;;;;;;;14.20;5.40;;;;;;;3.23;85.22;97768.02;107646;1309;23084;-43
2023/03/27 06:29:46;;;;;;;17.20;5.40;;;;;;;3.26;84.98;97769.80;107649;1309;22343;-42
2023/03/27 06:32:12;;;;;;;17.40;5.40;;;;;;;3.31;84.37;97772.46;107632;1309;22378;-41
2023/03/27 06:34:37;;;;;;;19.00;7.00;;;;;;;3.34;84.32;97773.38;107630;1309;22977;-43
2023/03/27 06:37:03;;;;;;;12.70;5.80;;;;;;;3.42;84.10;97771.58;107640;1309;22264;-42
2023/03/27 06:39:28;;;;;;;14.40;5.90;;;;;;;3.42;83.98;97769.67;107632;1309;22228;-43
2023/03/27 06:41:55;;;;;;;14.80;5.90;;;;;;;3.36;84.45;97778.45;107631;1309;22780;-43
2023/03/27 06:44:20;;;;;;;17.30;5.50;;;;;;;3.36;84.64;97784.85;107634;1309;22548;-42
2023/03/27 06:46:46;;;;;;;16.10;5.80;;;;;;;3.35;84.70;97791.52;107618;1309;23203;-43
2023/03/27 06:49:11;;;;;;;14.20;5.30;;;;;;;3.23;85.02;97791.89;107630;1309;22420;-42
2023/03/27 06:51:37;;;;;;;10.60;5.00;;;;;;;3.34;84.70;97791.89;107622;1309;22277;-43
2023/03/27 06:54:03;;;;;;;12.60;4.10;;;;;;;3.34;83.85;97798.85;107329;1309;22405;-42
2023/03/27 06:56:29;;;;;;;9.80;4.40;;;;;;;3.13;83.14;97801.73;107629;1309;22409;-43
2023/03/27 06:58:54;;;;;;;11.30;4.30;;;;;;;3.07;82.49;97805.52;107646;1309;22332;-42
2023/03/27 07:01:19;;;;;;;14.80;4.10;;;;;;;3.12;82.46;97807.02;107634;1309;22413;-42
2023/03/27 07:03:45;;;;;;;10.90;4.30;;;;;;;3.04;82.68;97811.20;107626;1309;22246;-42
2023/03/27 07:06:10;;;;;;;12.50;5.20;;;;;;;3.01;83.25;97809.27;107637;1309;22415;-43
2023/03/27 07:08:35;;;;;;;13.10;4.90;;;;;;;3.08;83.16;97814.10;107596;1309;22252;-42
2023/03/27 07:11:02;;;;;;;9.60;4.40;;;;;;;3.05;83.44;97813.39;107626;1309;24394;-43
2023/03/27 07:13:28;;;;;;;11.20;4.80;;;;;;;3.15;83.66;97814.65;107653;1309;22316;-43
2023/03/27 07:15:53;;;;;;;9.00;3.80;;;;;;;3.29;83.18;97825.54;107642;1309;22234;-42
2023/03/27 07:18:20;;;;;;;10.30;4.10;;;;;;;3.30;82.35;97827.95;107651;1309;23028;-43
2023/03/27 07:20:46;;;;;;;8.70;3.80;;;;;;;3.34;82.18;97830.67;107634;1309;22729;-44
2023/03/27 07:23:12;;;;;;;9.60;4.20;;;;;;;3.45;81.93;97834.46;107648;1309;22959;-44
2023/03/27 07:25:38;;;;;;;15.30;4.70;;;;;;;3.45;81.64;97835.69;107612;1309;22274;-43
2023/03/27 07:28:09;;;;;;;13.20;4.70;;;;;;;3.47;81.49;97835.95;107652;1309;22508;-43
2023/03/27 07:30:35;;;;;;;11.60;4.20;;;;;;;3.48;81.18;97840.38;107628;1309;22283;-42
2023/03/27 07:33:01;;;;;;;7.30;3.40;;;;;;;3.67;80.81;97846.20;107650;1309;22248;-44
2023/03/27 07:35:27;;;;;;;7.80;3.00;;;;;;;3.60;79.94;97852.09;107440;1309;23084;-47
2023/03/27 07:37:53;;;;;;;11.70;3.10;;;;;;;3.57;79.34;97857.30;107644;1309;22235;-44
2023/03/27 07:40:22;;;;;;;5.80;3.40;;;;;;;3.47;78.88;97864.87;107624;1309;22435;-41
2023/03/27 07:42:48;;;;;;;8.50;3.20;;;;;;;3.32;79.23;97867.34;107686;1309;22459;-44
2023/03/27 07:45:16;;;;;;;5.40;3.00;;;;;;;3.46;78.85;97875.47;107632;1309;22256;-41
2023/03/27 07:47:42;;;;;;;10.20;4.50;;;;;;;3.29;77.96;97884.45;107678;1309;22389;-42
2023/03/27 07:50:10;;;;;;;8.40;3.80;;;;;;;3.15;78.22;97891.35;107648;1309;22500;-42
2023/03/27 07:52:39;;;;;;;7.90;3.80;;;;;;;3.19;78.11;97898.10;107825;1307;22470;-41
2023/03/27 07:55:06;;;;;;;10.30;3.40;;;;;;;3.21;77.94;97903.91;107566;1307;22260;-42
2023/03/27 07:57:32;;;;;;;5.90;2.90;;;;;;;3.21;78.15;97908.41;107824;1308;22248;-44
2023/03/27 07:59:58;;;;;;;4.60;2.70;;;;;;;3.19;77.99;97912.13;107799;1307;22299;-41
2023/03/27 08:02:23;;;;;;;7.10;2.90;;;;;;;3.19;77.69;97915.95;107843;1308;22238;-42
2023/03/27 08:04:50;;;;;;;10.10;2.40;;;;;;;3.22;77.53;97917.69;107802;1307;22204;-43
2023/03/27 08:07:16;;;;;;;4.50;2.20;;;;;;;3.15;77.28;97926.15;107796;1301;22290;-44
2023/03/27 08:09:41;;;;;;;8.70;2.70;;;;;;;3.17;77.42;97926.92;107826;1301;22451;-44
2023/03/27 08:12:06;;;;;;;7.90;3.10;;;;;;;3.19;76.87;97928.23;107815;1307;22481;-41
2023/03/27 08:14:32;;;;;;;4.00;2.40;;;;;;;3.34;76.29;97932.20;107738;1307;23255;-41
2023/03/27 08:16:57;;;;;;;5.00;2.40;;;;;;;3.45;75.46;97936.17;107776;1308;23041;-43
2023/03/27 08:19:24;;;;;;;3.90;2.50;;;;;;;3.38;74.83;97945.19;107625;1308;22984;-43
2023/03/27 08:21:49;;;;;;;4.00;2.70;;;;;;;3.41;74.72;97945.38;107763;1294;22362;-43
2023/03/27 08:24:15;;;;;;;4.50;2.60;;;;;;;3.48;74.62;97945.05;107757;1302;23292;-42
2023/03/27 08:26:40;;;;;;;7.40;3.80;;;;;;;3.62;74.53;97949.05;107799;1308;22247;-41
2023/03/27 08:29:06;;;;;;;11.10;3.10;;;;;;;3.73;72.00;97952.66;107760;1307;23340;-49
2023/03/27 08:31:32;;;;;;;11.40;5.20;;;;;;;3.87;70.91;97952.54;107735;1300;22315;-41
2023/03/27 08:33:57;;;;;;;6.00;3.10;;;;;;;3.90;70.55;97954.98;107812;1307;22252;-44
2023/03/27 08:36:23;;;;;;;6.50;2.80;;;;;;;3.95;70.19;97957.87;107766;1305;22240;-44
2023/03/27 08:38:48;;;;;;;36.20;14.10;;;;;;;3.88;69.43;97970.16;107760;1307;23191;-47
2023/03/27 08:41:29;;;;;;;37.50;16.50;;;;;;;3.72;68.46;97973.50;107729;1307;23698;-42
2023/03/27 08:43:58;;;;;;;7.10;3.50;;;;;;;3.58;68.49;97975.92;107769;1301;22267;-44
2023/03/27 08:46:50;;;;;;;4.50;2.60;;;;;;;3.53;68.07;97979.27;107699;1301;22336;-41
2023/03/27 08:49:17;;;;;;;3.70;2.60;;;;;;;3.42;67.33;97985.70;107713;1309;22316;-43
2023/03/27 08:51:51;;;;;;;3.60;2.10;;;;;;;3.35;66.96;97986.91;107666;1309;22419;-40
2023/03/27 08:54:38;;;;;;;3.10;2.40;;;;;;;3.36;67.44;97989.28;107761;1304;22549;-43
2023/03/27 08:57:18;;;;;;;3.50;2.10;;;;;;;3.45;68.04;97986.79;107755;1308;23161;-41
2023/03/27 08:59:45;;;;;;;8.40;2.80;;;;;;;3.49;67.79;97986.79;107797;1307;22304;-44
2023/03/27 09:02:27;;;;;;;6.90;2.40;;;;;;;3.52;67.42;97989.05;107789;1308;22455;-48
2023/03/27 09:04:59;;;;;;;4.60;2.10;;;;;;;3.56;66.33;97990.60;107826;1300;22283;-42
2023/03/27 09:07:55;;;;;;;5.10;1.90;;;;;;;3.65;66.21;97994.99;107755;1307;22648;-46
2023/03/27 09:10:30;;;;;;;2.60;1.80;;;;;;;3.67;65.13;97994.55;107750;1308;22253;-43
2023/03/27 09:13:20;;;;;;;3.40;1.60;;;;;;;3.66;64.58;97992.54;107806;1307;23049;-43
2023/03/27 09:15:57;;;;;;;3.00;2.00;;;;;;;3.72;64.24;97990.17;107931;1306;22258;-42
2023/03/27 09:18:29;;;;;;;6.20;1.90;;;;;;;3.85;64.20;97987.11;107987;1306;22461;-42
2023/03/27 09:21:01;;;;;;;5.70;2.10;;;;;;;3.97;63.59;97990.02;107987;1301;22281;-44
2023/03/27 09:23:40;;;;;;;3.90;2.20;;;;;;;4.08;63.21;97994.64;108003;1306;22769;-44
2023/03/27 09:26:12;;;;;;;2.40;2.00;;;;;;;4.10;62.69;98003.23;107983;1306;22239;-43
2023/03/27 09:28:58;;;;;;;3.80;2.10;;;;;;;3.95;62.71;98007.43;107980;1306;22425;-42
2023/03/27 09:31:28;;;;;;;7.20;2.30;;;;;;;3.86;63.14;98009.25;107990;1306;22241;-41
2023/03/27 09:33:56;;;;;;;4.00;2.30;;;;;;;3.83;63.22;98011.46;107868;1299;22362;-44
2023/03/27 09:36:23;;;;;;;3.60;2.00;;;;;;;3.82;63.01;98013.25;107570;1295;22366;-46
2023/03/27 09:38:52;;;;;;;4.90;2.10;;;;;;;3.77;63.26;98008.97;107937;1306;22457;-42
2023/03/27 09:41:22;;;;;;;5.10;2.20;;;;;;;3.77;63.08;98009.32;107909;1307;22228;-44
2023/03/27 09:44:09;;;;;;;4.20;3.10;;;;;;;3.83;63.62;98009.73;107852;1305;22448;-43
2023/03/27 09:46:38;;;;;;;4.20;2.70;;;;;;;3.80;63.49;98010.58;107781;1306;22253;-42
2023/03/27 09:49:18;;;;;;;2.90;2.30;;;;;;;3.75;63.70;98012.03;108009;1306;22966;-40
2023/03/27 09:51:50;;;;;;;2.80;1.60;;;;;;;3.76;64.08;98016.34;107838;1305;22449;-42
2023/03/27 09:54:18;;;;;;;2.50;2.00;;;;;;;3.66;64.25;98018.68;107978;1306;22259;-44
2023/03/27 09:56:46;;;;;;;5.10;2.40;;;;;;;3.54;64.69;98021.38;107870;1306;22266;-42
2023/03/27 09:59:25;;;;;;;4.70;2.60;;;;;;;3.58;65.61;98027.05;107912;1307;22249;-44
2023/03/27 10:01:54;;;;;;;8.50;2.70;;;;;;;3.58;66.46;98022.19;107992;1305;22996;-45
2023/03/27 10:04:22;;;;;;;5.40;2.80;;;;;;;3.69;66.56;98022.02;107724;1306;22266;-41
2023/03/27 10:07:01;;;;;;;2.80;2.40;;;;;;;3.63;66.73;98026.63;107926;1306;22276;-44
2023/03/27 10:09:34;;;;;;;5.40;3.20;;;;;;;3.68;66.98;98032.83;107361;1307;22312;-43
2023/03/27 10:12:06;;;;;;;3.70;2.50;;;;;;;3.68;67.20;98036.10;107965;1305;22439;-41
2023/03/27 10:14:46;;;;;;;4.90;2.60;;;;;;;3.54;67.42;98038.67;107851;1306;22982;-41
2023/03/27 10:17:20;;;;;;;4.20;2.60;;;;;;;3.54;67.90;98038.33;107890;1307;22279;-43
2023/03/27 10:19:46;;;;;;;3.80;2.60;;;;;;;3.54;68.31;98042.67;107770;1308;22419;-44
2023/03/27 10:22:22;;;;;;;6.90;3.60;;;;;;;3.54;68.73;98050.84;107978;1301;23296;-43
2023/03/27 10:24:48;;;;;;;3.80;3.40;;;;;;;3.52;69.11;98052.46;107892;1305;22411;-44
2023/03/27 10:27:25;;;;;;;4.10;3.00;;;;;;;3.41;69.81;98054.36;107875;1307;22227;-41
2023/03/27 10:29:51;;;;;;;10.80;3.60;;;;;;;3.44;69.84;98053.52;107959;1307;22249;-41
2023/03/27 10:32:16;;;;;;;8.50;4.10;;;;;;;3.52;69.33;98056.09;107812;1298;22383;-44
2023/03/27 10:34:56;;;;;;;6.40;3.10;;;;;;;3.49;69.24;98049.49;107935;1308;22289;-46
2023/03/27 10:37:28;;;;;;;6.40;3.00;;;;;;;3.64;68.85;98047.55;107786;1302;22224;-43
2023/03/27 10:39:57;;;;;;;4.60;2.50;;;;;;;3.74;68.62;98048.33;107967;1307;22904;-45
2023/03/27 10:42:26;;;;;;;4.30;2.90;;;;;;;3.67;68.15;98054.00;107822;1305;22352;-43
2023/03/27 10:44:55;;;;;;;5.10;2.70;;;;;;;3.71;68.41;98055.06;107939;1307;22309;-45
2023/03/27 10:47:32;;;;;;;5.10;2.80;;;;;;;3.79;68.79;98054.15;107842;1302;22289;-44
2023/03/27 10:50:29;;;;;;;3.20;2.90;;;;;;;3.83;68.43;98056.20;107842;1305;23100;-46
2023/03/27 10:52:54;;;;;;;;;;;;;;;3.91;68.82;98053.42;107833;1306;23131;-42
2023/03/27 10:55:40;;;;;;;4.80;2.40;;;;;;;3.93;68.02;98058.48;107864;1308;22239;-44
2023/03/27 10:58:38;;;;;;;4.40;2.00;;;;;;;3.95;67.61;98062.40;107807;1307;22488;-45
2023/03/27 11:01:10;;;;;;;4.50;2.10;;;;;;;4.00;66.79;98060.77;107834;1305;23215;-43
2023/03/27 11:03:51;;;;;;;3.40;2.30;;;;;;;4.07;66.41;98063.06;107816;1301;22453;-42
2023/03/27 11:06:22;;;;;;;2.20;2.00;;;;;;;4.10;65.79;98065.31;107774;1301;23512;-44
2023/03/27 11:08:57;;;;;;;8.30;4.00;;;;;;;4.09;65.91;98067.48;107819;1301;22349;-44
2023/03/27 11:11:29;;;;;;;6.50;3.40;;;;;;;4.05;65.74;98062.41;107796;1305;22451;-45
2023/03/27 11:14:01;;;;;;;4.50;2.30;;;;;;;4.04;65.52;98063.02;107785;1302;22390;-45
2023/03/27 11:16:38;;;;;;;2.60;2.40;;;;;;;3.90;65.87;98070.27;107840;1304;23161;-42
2023/03/27 11:19:21;;;;;;;8.50;4.10;;;;;;;3.89;66.54;98074.83;107731;1307;22405;-45
2023/03/27 11:21:56;;;;;;;7.90;3.20;;;;;;;3.79;67.40;98075.47;107844;1307;22416;-45
2023/03/27 11:24:33;;;;;;;8.00;3.30;;;;;;;3.72;67.72;98083.41;107751;1307;22521;-46
2023/03/27 11:27:19;;;;;;;4.50;2.60;;;;;;;3.60;68.26;98078.79;107895;1307;22399;-45
2023/03/27 11:29:57;;;;;;;6.00;2.80;;;;;;;3.63;68.29;98078.63;107914;1306;22266;-47
2023/03/27 11:32:36;;;;;;;4.10;2.80;;;;;;;3.62;68.50;98079.39;107858;1306;22231;-44
2023/03/27 11:35:16;;;;;;;2.90;2.60;;;;;;;3.69;68.78;98080.27;107941;1305;22429;-42
2023/03/27 11:37:50;;;;;;;4.70;3.20;;;;;;;3.77;68.73;98075.05;107971;1306;22460;-45
2023/03/27 11:40:25;;;;;;;15.50;6.70;;;;;;;4.09;68.20;98072.31;107848;1299;22222;-43
2023/03/27 11:42:51;;;;;;;5.40;3.60;;;;;;;4.49;67.15;98075.70;107939;1292;22217;-45
2023/03/27 11:45:22;;;;;;;5.10;3.50;;;;;;;4.59;65.95;98075.59;107935;1302;22220;-45